createdAt,value
2018-10-16T00:01:53.829Z,101237.50
2018-10-16T00:04:22.397Z,101240.34
2018-10-16T00:06:50.769Z,101236.98
2018-10-16T00:09:19.131Z,101234.34
2018-10-16T00:11:59.530Z,101229.03
2018-10-16T00:14:27.909Z,101231.64
2018-10-16T00:16:56.375Z,101231.64
2018-10-16T00:19:24.948Z,101228.31
2018-10-16T00:21:53.432Z,101227.73
2018-10-16T00:24:22.123Z,101229.39
2018-10-16T00:26:50.504Z,101219.19
2018-10-16T00:29:18.876Z,101228.58
2018-10-16T00:31:47.228Z,101236.67
2018-10-16T00:34:15.563Z,101236.53
2018-10-16T00:36:43.908Z,101237.97
2018-10-16T00:39:13.624Z,101242.72
2018-10-16T00:41:42.415Z,101239.12
2018-10-16T00:44:12.020Z,101240.47
2018-10-16T00:46:41.736Z,101239.44
2018-10-16T00:49:10.080Z,101233.91
2018-10-16T00:51:39.722Z,101236.58
2018-10-16T00:54:08.200Z,101249.89
2018-10-16T00:56:36.785Z,101253.13
2018-10-16T00:59:05.186Z,101252.39
2018-10-16T01:01:34.515Z,101257.58
2018-10-16T01:04:04.163Z,101255.11
2018-10-16T01:06:33.729Z,101254.12
2018-10-16T01:09:02.108Z,101240.14
2018-10-16T01:11:30.484Z,101244.67
2018-10-16T01:13:59.454Z,101242.77
2018-10-16T01:16:27.857Z,101243.08
2018-10-16T01:18:56.822Z,101239.66
2018-10-16T01:21:25.198Z,101243.78
2018-10-16T01:23:53.584Z,101233.75
2018-10-16T01:26:21.966Z,101234.34
2018-10-16T01:28:50.336Z,101235.30
2018-10-16T01:31:18.698Z,101244.22
2018-10-16T01:33:47.056Z,101249.12
2018-10-16T01:36:15.428Z,101250.78
2018-10-16T01:38:43.793Z,101255.78
2018-10-16T01:41:12.161Z,101246.22
2018-10-16T01:43:40.791Z,101248.66
2018-10-16T01:46:09.788Z,101252.39
2018-10-16T01:48:38.675Z,101246.39
2018-10-16T01:51:07.468Z,101250.70
2018-10-16T01:53:35.848Z,101244.57
2018-10-16T01:56:04.228Z,101231.88
2018-10-16T01:58:32.612Z,101231.92
2018-10-16T02:01:00.970Z,101232.75
2018-10-16T02:03:29.371Z,101236.56
2018-10-16T02:05:57.752Z,101241.02
2018-10-16T02:08:26.176Z,101239.45
2018-10-16T02:10:54.558Z,101242.02
2018-10-16T02:13:22.934Z,101237.43
2018-10-16T02:15:51.317Z,101249.63
2018-10-16T02:18:19.697Z,101254.87
2018-10-16T02:20:48.074Z,101257.98
2018-10-16T02:23:16.461Z,101249.42
2018-10-16T02:25:44.827Z,101246.25
2018-10-16T02:28:13.213Z,101250.41
2018-10-16T02:30:41.563Z,101250.02
2018-10-16T02:33:10.562Z,101244.91
2018-10-16T02:35:38.932Z,101240.19
2018-10-16T02:38:07.344Z,101245.52
2018-10-16T02:40:35.719Z,101246.31
2018-10-16T02:43:04.098Z,101249.69
2018-10-16T02:45:32.477Z,101251.78
2018-10-16T02:48:00.853Z,101259.86
2018-10-16T02:50:29.236Z,101258.31
2018-10-16T02:52:57.614Z,101257.37
2018-10-16T02:55:26.024Z,101254.59
2018-10-16T02:57:54.476Z,101259.59
2018-10-16T03:00:22.877Z,101254.45
2018-10-16T03:02:51.252Z,101254.33
2018-10-16T03:05:19.616Z,101257.09
2018-10-16T03:07:48.001Z,101256.06
2018-10-16T03:10:16.393Z,101254.72
2018-10-16T03:12:45.060Z,101253.93
2018-10-16T03:15:14.095Z,101256.63
2018-10-16T03:17:42.481Z,101261.27
2018-10-16T03:20:11.874Z,101259.44
2018-10-16T03:22:41.720Z,101259.64
2018-10-16T03:25:11.879Z,101260.52
2018-10-16T03:27:40.704Z,101263.69
2018-10-16T03:30:10.827Z,101254.59
2018-10-16T03:32:39.928Z,101258.38
2018-10-16T03:35:09.731Z,101268.36
2018-10-16T03:37:39.045Z,101273.81
2018-10-16T03:40:07.721Z,101261.16
2018-10-16T03:42:36.088Z,101263.73
2018-10-16T03:45:04.891Z,101261.70
2018-10-16T03:47:33.333Z,101266.38
2018-10-16T03:50:01.657Z,101272.95
2018-10-16T03:52:30.054Z,101274.97
2018-10-16T03:54:58.463Z,101277.58
2018-10-16T03:57:27.028Z,101272.24
2018-10-16T03:59:55.377Z,101265.35
2018-10-16T04:02:23.879Z,101269.98
2018-10-16T04:04:52.433Z,101271.80
2018-10-16T04:07:20.798Z,101274.06
2018-10-16T04:09:49.168Z,101272.98
2018-10-16T04:12:17.580Z,101261.20
2018-10-16T04:14:45.952Z,101262.74
2018-10-16T04:17:14.284Z,101269.08
2018-10-16T04:19:43.118Z,101285.09
2018-10-16T04:22:11.493Z,101282.05
2018-10-16T04:24:39.896Z,101286.95
2018-10-16T04:27:08.227Z,101289.25
2018-10-16T04:29:38.575Z,101281.53
2018-10-16T04:32:06.960Z,101284.34
2018-10-16T04:34:35.295Z,101291.02
2018-10-16T04:37:03.692Z,101291.66
2018-10-16T04:39:32.096Z,101297.42
2018-10-16T04:42:01.541Z,101300.98
2018-10-16T04:44:29.972Z,101300.22
2018-10-16T04:46:58.462Z,101294.73
2018-10-16T04:49:26.887Z,101302.04
2018-10-16T04:51:55.377Z,101302.45
2018-10-16T04:54:23.799Z,101301.19
2018-10-16T04:56:52.240Z,101298.69
2018-10-16T04:59:20.632Z,101305.73
2018-10-16T05:01:49.808Z,101308.78
2018-10-16T05:04:18.420Z,101308.70
2018-10-16T05:06:46.843Z,101316.09
2018-10-16T05:09:15.873Z,101320.52
2018-10-16T05:11:47.244Z,101330.00
2018-10-16T05:14:15.631Z,101330.47
2018-10-16T05:16:44.035Z,101330.52
2018-10-16T05:19:15.034Z,101333.68
2018-10-16T05:21:43.417Z,101331.23
2018-10-16T05:24:12.234Z,101333.06
2018-10-16T05:26:42.002Z,101334.22
2018-10-16T05:29:11.073Z,101333.86
2018-10-16T05:31:40.333Z,101340.87
2018-10-16T05:34:09.480Z,101337.89
2018-10-16T05:36:38.960Z,101345.16
2018-10-16T05:39:10.838Z,101341.34
2018-10-16T05:41:40.840Z,101343.84
2018-10-16T05:44:09.536Z,101352.05
2018-10-16T05:46:37.959Z,101348.06
2018-10-16T05:49:07.090Z,101350.39
2018-10-16T05:51:35.544Z,101356.30
2018-10-16T05:54:04.143Z,101353.44
2018-10-16T05:56:32.595Z,101348.17
2018-10-16T05:59:00.959Z,101354.48
2018-10-16T06:01:29.337Z,101354.02
2018-10-16T06:03:57.772Z,101356.52
2018-10-16T06:06:26.228Z,101354.12
2018-10-16T06:08:54.713Z,101357.28
2018-10-16T06:11:23.159Z,101361.79
2018-10-16T06:13:51.593Z,101357.69
2018-10-16T06:16:20.032Z,101356.99
2018-10-16T06:18:48.470Z,101365.42
2018-10-16T06:21:16.906Z,101365.70
2018-10-16T06:23:45.984Z,101364.65
2018-10-16T06:26:14.443Z,101364.39
2018-10-16T06:28:43.420Z,101372.53
2018-10-16T06:51:25.636Z,101367.09
2018-10-16T06:53:54.071Z,101367.61
2018-10-16T06:56:22.504Z,101365.00
2018-10-16T06:58:50.937Z,101366.54
2018-10-16T07:01:19.927Z,101376.71
2018-10-16T07:03:48.366Z,101377.69
2018-10-16T07:06:16.845Z,101373.33
2018-10-16T07:08:45.722Z,101381.20
2018-10-16T07:11:14.151Z,101374.61
2018-10-16T07:13:42.777Z,101378.24
2018-10-16T07:16:11.199Z,101382.30
2018-10-16T07:18:40.276Z,101385.00
2018-10-16T07:21:08.754Z,101381.93
2018-10-16T07:23:37.251Z,101386.72
2018-10-16T07:26:05.988Z,101386.02
2018-10-16T07:28:34.485Z,101382.14
2018-10-16T07:31:02.891Z,101384.97
2018-10-16T07:33:31.361Z,101390.22
2018-10-16T07:35:59.826Z,101389.64
2018-10-16T07:38:28.223Z,101389.89
2018-10-16T07:40:56.695Z,101386.80
2018-10-16T07:43:25.131Z,101379.03
2018-10-16T07:45:53.527Z,101373.05
2018-10-16T07:48:21.945Z,101374.14
2018-10-16T07:50:50.844Z,101377.15
2018-10-16T07:53:19.497Z,101370.66
2018-10-16T07:55:47.935Z,101364.39
2018-10-16T07:58:16.359Z,101368.81
2018-10-16T08:00:46.561Z,101367.45
2018-10-16T08:03:14.963Z,101378.42
2018-10-16T08:05:43.377Z,101383.77
2018-10-16T08:08:11.968Z,101387.17
2018-10-16T08:10:40.479Z,101390.27
2018-10-16T08:13:09.347Z,101382.13
2018-10-16T08:15:38.532Z,101379.11
2018-10-16T08:18:08.370Z,101374.94
2018-10-16T08:20:37.352Z,101370.28
2018-10-16T08:23:06.238Z,101375.80
2018-10-16T08:25:34.739Z,101376.91
2018-10-16T08:28:03.400Z,101372.42
2018-10-16T08:30:31.957Z,101378.64
2018-10-16T08:33:00.309Z,101376.17
2018-10-16T08:35:28.746Z,101377.13
2018-10-16T08:39:05.067Z,101379.75
2018-10-16T08:42:18.849Z,101373.48
2018-10-16T08:45:56.140Z,101381.38
2018-10-16T08:48:35.820Z,101387.86
2018-10-16T08:51:15.602Z,101397.38
2018-10-16T08:53:44.010Z,101401.16
2018-10-16T08:56:12.399Z,101402.17
2018-10-16T08:58:40.829Z,101399.20
2018-10-16T09:01:09.230Z,101404.27
2018-10-16T09:03:37.596Z,101403.22
2018-10-16T09:06:09.934Z,101403.81
2018-10-16T09:08:39.812Z,101406.02
2018-10-16T09:11:08.263Z,101401.64
2018-10-16T09:13:36.811Z,101398.73
2018-10-16T09:16:05.612Z,101387.94
2018-10-16T09:18:34.911Z,101387.07
2018-10-16T09:21:03.913Z,101383.02
2018-10-16T09:23:32.997Z,101386.00
2018-10-16T09:26:01.643Z,101390.77
2018-10-16T09:28:31.113Z,101398.49
2018-10-16T09:31:02.419Z,101407.27
2018-10-16T09:33:32.355Z,101407.64
2018-10-16T09:36:01.352Z,101407.27
2018-10-16T09:38:31.025Z,101411.62
2018-10-16T09:40:59.490Z,101403.28
2018-10-16T09:43:27.947Z,101402.92
2018-10-16T09:45:57.145Z,101394.77
2018-10-16T09:48:25.566Z,101393.59
2018-10-16T09:50:54.172Z,101395.41
2018-10-16T09:53:23.513Z,101390.27
2018-10-16T09:55:52.033Z,101385.43
2018-10-16T09:58:24.110Z,101379.97
2018-10-16T10:00:58.277Z,101384.36
2018-10-16T10:03:30.970Z,101386.20
2018-10-16T10:06:00.226Z,101393.25
2018-10-16T10:08:28.748Z,101392.75
2018-10-16T10:10:57.830Z,101393.54
2018-10-16T10:13:26.726Z,101383.77
2018-10-16T10:15:55.141Z,101388.00
2018-10-16T10:18:24.053Z,101382.69
2018-10-16T10:20:52.503Z,101380.08
2018-10-16T10:23:21.000Z,101374.43
2018-10-16T10:25:49.412Z,101367.94
2018-10-16T10:28:18.027Z,101363.58
2018-10-16T10:30:46.412Z,101369.53
2018-10-16T10:33:15.553Z,101364.84
2018-10-16T10:35:43.972Z,101373.37
2018-10-16T10:38:12.383Z,101364.16
2018-10-16T10:40:40.951Z,101362.86
2018-10-16T10:43:10.687Z,101368.05
2018-10-16T10:45:40.683Z,101374.50
2018-10-16T10:48:10.352Z,101372.98
2018-10-16T10:50:39.708Z,101373.58
2018-10-16T10:53:08.789Z,101370.27
2018-10-16T10:55:38.057Z,101371.77
2018-10-16T10:58:06.974Z,101374.98
2018-10-16T11:00:35.649Z,101373.50
2018-10-16T11:03:04.782Z,101376.38
2018-10-16T11:05:35.599Z,101367.12
2018-10-16T11:08:04.109Z,101366.89
2018-10-16T11:10:33.248Z,101368.28
2018-10-16T11:13:01.783Z,101364.78
2018-10-16T11:15:30.266Z,101369.92
2018-10-16T11:17:58.867Z,101366.48
2018-10-16T11:20:27.858Z,101363.10
2018-10-16T11:22:56.479Z,101363.36
2018-10-16T11:25:26.505Z,101364.20
2018-10-16T11:27:54.931Z,101370.77
2018-10-16T11:30:23.645Z,101368.70
2018-10-16T11:32:52.291Z,101364.70
2018-10-16T11:35:20.798Z,101369.92
2018-10-16T11:37:49.252Z,101368.83
2018-10-16T11:40:18.455Z,101371.19
2018-10-16T11:42:47.730Z,101367.20
2018-10-16T11:45:16.244Z,101363.47
2018-10-16T11:47:44.904Z,101369.39
2018-10-16T11:50:13.580Z,101363.70
2018-10-16T11:52:42.380Z,101365.16
2018-10-16T11:55:11.284Z,101363.94
2018-10-16T11:57:40.421Z,101361.84
2018-10-16T12:00:11.615Z,101368.03
2018-10-16T12:02:40.186Z,101370.89
2018-10-16T12:05:08.634Z,101368.69
2018-10-16T12:07:37.212Z,101364.00
2018-10-16T12:10:06.203Z,101365.86
2018-10-16T12:12:37.201Z,101362.91
2018-10-16T12:15:06.381Z,101358.81
2018-10-16T12:17:41.840Z,101360.17
2018-10-16T12:20:16.922Z,101360.69
2018-10-16T12:22:45.266Z,101361.83
2018-10-16T12:25:13.673Z,101364.67
2018-10-16T12:27:41.995Z,101362.80
2018-10-16T12:30:10.639Z,101354.48
2018-10-16T12:32:38.999Z,101351.39
2018-10-16T12:35:07.707Z,101356.23
2018-10-16T12:37:36.086Z,101349.39
2018-10-16T12:40:05.644Z,101360.45
2018-10-16T12:42:34.033Z,101356.11
2018-10-16T12:45:02.402Z,101352.13
2018-10-16T12:47:30.736Z,101357.95
2018-10-16T12:49:59.109Z,101359.91
2018-10-16T12:52:27.479Z,101359.80
2018-10-16T12:54:55.814Z,101358.45
2018-10-16T12:57:24.237Z,101361.06
2018-10-16T12:59:52.591Z,101367.12
2018-10-16T13:02:20.881Z,101360.30
2018-10-16T13:04:49.200Z,101358.22
2018-10-16T13:07:48.362Z,101353.97
2018-10-16T13:10:18.005Z,101359.05
2018-10-16T13:12:46.884Z,101358.79
2018-10-16T13:15:16.090Z,101357.16
2018-10-16T13:17:44.994Z,101362.63
2018-10-16T13:20:15.257Z,101367.80
2018-10-16T13:22:45.099Z,101364.66
2018-10-16T13:25:14.703Z,101368.30
2018-10-16T13:27:43.203Z,101370.26
2018-10-16T13:30:13.628Z,101368.30
2018-10-16T13:32:42.020Z,101361.56
2018-10-16T13:35:12.369Z,101373.44
2018-10-16T13:37:40.837Z,101370.45
2018-10-16T13:40:10.171Z,101369.84
2018-10-16T13:42:38.516Z,101373.08
2018-10-16T13:45:08.045Z,101370.57
2018-10-16T13:47:36.413Z,101372.39
2018-10-16T13:50:06.103Z,101373.53
2018-10-16T13:52:34.427Z,101372.90
2018-10-16T13:55:02.751Z,101366.25
2018-10-16T13:57:31.087Z,101368.12
2018-10-16T13:59:59.402Z,101367.98
2018-10-16T14:02:27.740Z,101367.84
2018-10-16T14:04:56.149Z,101367.70
2018-10-16T14:07:24.440Z,101363.59
2018-10-16T14:09:52.835Z,101363.81
2018-10-16T14:12:21.170Z,101372.44
2018-10-16T14:14:49.513Z,101373.63
2018-10-16T14:17:17.837Z,101374.09
2018-10-16T14:19:46.159Z,101381.02
2018-10-16T14:22:14.522Z,101373.34
2018-10-16T14:24:42.900Z,101375.27
2018-10-16T14:27:11.246Z,101371.67
2018-10-16T14:29:39.565Z,101373.41
2018-10-16T14:32:07.987Z,101369.66
2018-10-16T14:34:36.459Z,101368.89
2018-10-16T14:37:04.644Z,101368.38
2018-10-16T14:39:32.979Z,101369.36
2018-10-16T14:42:01.344Z,101376.48
2018-10-16T14:44:29.676Z,101368.93
2018-10-16T14:46:58.029Z,101379.55
2018-10-16T14:49:26.400Z,101382.58
2018-10-16T14:51:54.794Z,101381.93
2018-10-16T14:54:23.112Z,101373.60
2018-10-16T14:56:51.438Z,101378.52
2018-10-16T14:59:19.777Z,101384.59
2018-10-16T15:01:48.105Z,101384.02
2018-10-16T15:04:16.460Z,101392.25
2018-10-16T15:06:44.801Z,101397.70
2018-10-16T15:09:13.122Z,101396.58
2018-10-16T15:11:41.485Z,101398.64
2018-10-16T15:14:09.883Z,101394.28
2018-10-16T15:16:38.245Z,101399.56
2018-10-16T15:19:06.502Z,101402.61
2018-10-16T15:21:34.841Z,101404.09
2018-10-16T15:24:03.231Z,101395.77
2018-10-16T15:26:31.533Z,101400.14
2018-10-16T15:28:59.858Z,101397.17
2018-10-16T15:31:28.214Z,101394.94
2018-10-16T15:33:56.608Z,101396.38
2018-10-16T15:36:24.900Z,101398.73
2018-10-16T15:38:53.258Z,101395.39
2018-10-16T15:41:21.610Z,101394.76
2018-10-16T15:43:49.931Z,101401.16
2018-10-16T15:46:18.262Z,101399.05
2018-10-16T15:48:46.637Z,101400.98
2018-10-16T15:51:14.953Z,101398.36
2018-10-16T15:53:43.324Z,101402.27
2018-10-16T15:56:11.752Z,101402.76
2018-10-16T15:58:40.051Z,101405.56
2018-10-16T16:01:08.390Z,101413.17
2018-10-16T16:03:36.711Z,101411.45
2018-10-16T16:06:05.555Z,101410.12
2018-10-16T16:08:33.892Z,101416.84
2018-10-16T16:11:02.221Z,101417.84
2018-10-16T16:13:30.544Z,101415.25
2018-10-16T16:15:58.922Z,101422.06
2018-10-16T16:18:27.255Z,101427.31
2018-10-16T16:20:55.570Z,101426.91
2018-10-16T16:23:23.887Z,101428.60
2018-10-16T16:25:52.284Z,101430.80
2018-10-16T16:28:20.613Z,101436.15
2018-10-16T16:30:48.948Z,101440.33
2018-10-16T16:33:17.325Z,101442.06
2018-10-16T16:35:45.681Z,101448.45
2018-10-16T16:38:14.060Z,101451.64
2018-10-16T16:40:42.351Z,101448.95
2018-10-16T16:43:10.668Z,101452.33
2018-10-16T16:45:38.989Z,101453.48
2018-10-16T16:48:07.326Z,101451.93
2018-10-16T16:50:35.646Z,101458.88
2018-10-16T16:53:04.037Z,101459.80
2018-10-16T16:55:32.375Z,101454.62
2018-10-16T16:58:00.722Z,101459.98
2018-10-16T17:00:29.053Z,101455.25
2018-10-16T17:02:57.385Z,101457.95
2018-10-16T17:05:26.055Z,101461.98
2018-10-16T17:07:54.408Z,101456.39
2018-10-16T17:10:22.764Z,101466.73
2018-10-16T17:12:51.086Z,101469.02
2018-10-16T17:15:19.440Z,101466.63
2018-10-16T17:17:47.851Z,101472.91
2018-10-16T17:20:16.982Z,101474.31
2018-10-16T17:22:45.350Z,101473.56
2018-10-16T17:25:14.984Z,101476.66
2018-10-16T17:27:43.980Z,101480.66
2018-10-16T17:30:14.316Z,101483.16
2018-10-16T17:32:43.313Z,101483.14
2018-10-16T17:35:12.396Z,101485.43
2018-10-16T17:37:41.394Z,101491.75
2018-10-16T17:40:12.126Z,101489.08
2018-10-16T17:42:40.591Z,101482.50
2018-10-16T17:45:10.996Z,101490.72
2018-10-16T17:47:39.324Z,101488.14
2018-10-16T17:50:10.805Z,101492.61
2018-10-16T17:52:39.344Z,101490.87
2018-10-16T17:55:08.337Z,101486.03
2018-10-16T17:57:37.149Z,101486.84
2018-10-16T18:00:06.883Z,101489.12
2018-10-16T18:02:35.223Z,101486.42
2018-10-16T18:05:03.555Z,101489.45
2018-10-16T18:07:31.945Z,101493.68
2018-10-16T18:10:00.280Z,101497.26
2018-10-16T18:12:28.635Z,101492.75
2018-10-16T18:14:56.991Z,101492.03
2018-10-16T18:17:25.492Z,101486.78
2018-10-16T18:19:53.840Z,101496.02
2018-10-16T18:22:22.167Z,101492.20
2018-10-16T18:24:50.505Z,101496.56
2018-10-16T18:27:18.820Z,101493.33
2018-10-16T18:29:47.206Z,101496.91
2018-10-16T18:32:15.503Z,101491.02
2018-10-16T18:34:43.849Z,101493.39
2018-10-16T18:37:12.216Z,101494.89
2018-10-16T18:39:40.634Z,101497.20
2018-10-16T18:42:08.911Z,101495.14
2018-10-16T18:44:37.234Z,101503.40
2018-10-16T18:47:05.576Z,101497.30
2018-10-16T18:49:33.920Z,101508.02
2018-10-16T18:52:02.291Z,101498.09
2018-10-16T18:54:30.668Z,101497.31
2018-10-16T18:56:59.079Z,101493.89
2018-10-16T18:59:27.373Z,101498.96
2018-10-16T19:01:55.698Z,101499.29
2018-10-16T19:04:24.057Z,101500.64
2018-10-16T19:06:52.413Z,101503.73
2018-10-16T19:09:20.744Z,101499.44
2018-10-16T19:11:49.092Z,101500.63
2018-10-16T19:14:17.425Z,101499.76
2018-10-16T19:16:45.771Z,101493.23
2018-10-16T19:19:14.481Z,101500.05
2018-10-16T19:21:42.829Z,101500.61
2018-10-16T19:24:11.164Z,101495.83
2018-10-16T19:26:39.709Z,101499.55
2018-10-16T19:29:08.058Z,101496.59
2018-10-16T19:31:36.410Z,101496.26
2018-10-16T19:34:04.743Z,101494.61
2018-10-16T19:36:33.150Z,101487.34
2018-10-16T19:39:01.501Z,101486.39
2018-10-16T19:41:29.853Z,101489.71
2018-10-16T19:43:58.160Z,101489.80
2018-10-16T19:46:26.866Z,101486.28
2018-10-16T19:48:55.205Z,101491.91
2018-10-16T19:51:23.538Z,101488.00
2018-10-16T19:53:51.874Z,101492.52
2018-10-16T19:56:20.225Z,101495.79
2018-10-16T19:58:48.563Z,101494.23
2018-10-16T20:01:16.884Z,101492.97
2018-10-16T20:03:45.187Z,101492.62
2018-10-16T20:06:13.536Z,101494.06
2018-10-16T20:08:41.947Z,101487.89
2018-10-16T20:11:10.409Z,101490.21
2018-10-16T20:13:38.747Z,101486.56
2018-10-16T20:16:07.088Z,101484.02
2018-10-16T20:18:35.477Z,101483.72
2018-10-16T20:21:03.963Z,101481.67
2018-10-16T20:23:32.316Z,101482.77
2018-10-16T20:26:00.685Z,101479.80
2018-10-16T20:28:29.053Z,101478.92
2018-10-16T20:30:57.445Z,101474.40
2018-10-16T20:33:25.834Z,101471.84
2018-10-16T20:35:54.190Z,101473.19
2018-10-16T20:38:22.538Z,101478.19
2018-10-16T20:40:50.973Z,101475.23
2018-10-16T20:43:19.317Z,101472.14
2018-10-16T20:45:47.662Z,101473.54
2018-10-16T20:48:15.980Z,101473.60
2018-10-16T20:50:44.288Z,101477.46
2018-10-16T20:53:12.660Z,101471.77
2018-10-16T20:55:41.148Z,101478.90
2018-10-16T20:58:09.499Z,101478.08
2018-10-16T21:00:38.926Z,101481.30
2018-10-16T21:03:07.266Z,101479.42
2018-10-16T21:05:35.736Z,101479.03
2018-10-16T21:08:03.972Z,101481.30
2018-10-16T21:10:32.321Z,101482.08
2018-10-16T21:13:00.656Z,101475.33
2018-10-16T21:15:29.079Z,101477.42
2018-10-16T21:17:57.398Z,101472.02
2018-10-16T21:20:25.733Z,101479.61
2018-10-16T21:22:54.087Z,101480.27
2018-10-16T21:25:22.411Z,101475.34
2018-10-16T21:27:50.746Z,101481.41
2018-10-16T21:30:19.075Z,101480.80
2018-10-16T21:32:47.419Z,101481.02
2018-10-16T21:35:15.771Z,101474.27
2018-10-16T21:37:44.103Z,101481.06
2018-10-16T21:40:12.549Z,101487.02
2018-10-16T21:42:40.878Z,101489.31
2018-10-16T21:45:09.227Z,101490.17
2018-10-16T21:47:37.560Z,101496.72
2018-10-16T21:50:05.894Z,101492.59
2018-10-16T21:52:34.222Z,101494.02
2018-10-16T21:55:02.605Z,101494.63
2018-10-16T21:57:30.940Z,101495.78
2018-10-16T21:59:59.307Z,101495.03
2018-10-16T22:02:32.960Z,101490.55
2018-10-16T22:05:01.402Z,101497.25
2018-10-16T22:07:29.800Z,101490.23
2018-10-16T22:09:58.160Z,101490.28
2018-10-16T22:12:26.504Z,101486.45
2018-10-16T22:14:54.989Z,101488.62
2018-10-16T22:17:23.414Z,101486.44
2018-10-16T22:19:51.744Z,101490.09
2018-10-16T22:22:20.081Z,101493.30
2018-10-16T22:24:48.434Z,101489.81
2018-10-16T22:27:16.779Z,101491.41
2018-10-16T22:29:45.092Z,101489.14
2018-10-16T22:32:13.434Z,101485.14
2018-10-16T22:34:41.766Z,101488.86
2018-10-16T22:37:10.213Z,101483.20
2018-10-16T22:39:38.471Z,101488.03
2018-10-16T22:42:06.845Z,101487.59
2018-10-16T22:44:35.206Z,101494.61
2018-10-16T22:47:03.593Z,101494.61
2018-10-16T22:49:31.885Z,101497.49
2018-10-16T22:52:00.230Z,101492.14
2018-10-16T22:54:28.567Z,101497.96
2018-10-16T22:56:59.863Z,101496.85
2018-10-16T22:59:28.199Z,101501.52
2018-10-16T23:01:56.516Z,101497.58
2018-10-16T23:04:24.849Z,101500.08
2018-10-16T23:06:53.231Z,101502.58
2018-10-16T23:09:21.516Z,101504.87
2018-10-16T23:11:49.843Z,101499.72
2018-10-16T23:14:18.162Z,101499.66
2018-10-16T23:16:46.515Z,101501.55
2018-10-16T23:19:14.983Z,101498.16
2018-10-16T23:21:43.296Z,101491.27
2018-10-16T23:24:11.652Z,101495.23
2018-10-16T23:26:39.996Z,101492.21
2018-10-16T23:29:08.380Z,101493.49
2018-10-16T23:31:36.686Z,101495.42
2018-10-16T23:34:05.715Z,101493.12
2018-10-16T23:36:34.054Z,101498.58
2018-10-16T23:39:02.372Z,101489.34
2018-10-16T23:41:30.739Z,101490.91
2018-10-16T23:43:59.093Z,101492.73
2018-10-16T23:46:27.633Z,101483.38
2018-10-16T23:48:55.967Z,101490.70
2018-10-16T23:51:24.306Z,101493.97
2018-10-16T23:53:52.630Z,101486.95
2018-10-16T23:56:20.956Z,101488.48
2018-10-16T23:58:49.269Z,101483.86
